Terminal Aerodrome Forecast
Issued by NWS

Home | Current Version | Previous Version | Text Only | Print | Product List | Glossary On
Versions: 1 2 3 4 5 6 7 8 9 10 11 12 13 14 15 16 17 18 19
837
FTUS43 KAPX 242323
TAFAPN
TAF
KAPN 242323Z 2500/2524 21008KT P6SM VCSH SCT035 BKN100
     FM250200 23004KT P6SM SCT150
     FM250700 23003KT 3SM BR BKN015
     FM251300 25006KT P6SM SCT200
     FM251700 26009KT P6SM SCT040 BKN180=

USA.gov is the U.S. government's official web portal to all federal, state and local government web resources and services.